sensor_id;sensor_type;location;lat;lon;timestamp;temperature;humidity
65864;SHT30;52639;51.180;20.460;2023-07-29T00:00:14;13.58;92.70
65864;SHT30;52639;51.180;20.460;2023-07-29T00:04:37;13.40;93.08
65864;SHT30;52639;51.180;20.460;2023-07-29T00:08:40;13.47;93.27
65864;SHT30;52639;51.180;20.460;2023-07-29T00:12:43;13.37;92.83
65864;SHT30;52639;51.180;20.460;2023-07-29T00:16:47;13.36;93.05
65864;SHT30;52639;51.180;20.460;2023-07-29T00:20:50;13.32;93.42
65864;SHT30;52639;51.180;20.460;2023-07-29T00:24:54;13.16;92.89
65864;SHT30;52639;51.180;20.460;2023-07-29T00:28:58;13.19;93.51
65864;SHT30;52639;51.180;20.460;2023-07-29T00:33:03;13.23;93.31
65864;SHT30;52639;51.180;20.460;2023-07-29T00:37:06;13.24;93.38
65864;SHT30;52639;51.180;20.460;2023-07-29T00:41:10;13.20;93.25
65864;SHT30;52639;51.180;20.460;2023-07-29T00:45:15;13.06;93.18
65864;SHT30;52639;51.180;20.460;2023-07-29T00:49:19;13.07;93.57
65864;SHT30;52639;51.180;20.460;2023-07-29T00:53:22;13.03;93.59
65864;SHT30;52639;51.180;20.460;2023-07-29T00:57:25;12.89;93.32
65864;SHT30;52639;51.180;20.460;2023-07-29T01:01:29;12.90;93.72
65864;SHT30;52639;51.180;20.460;2023-07-29T01:05:38;12.92;93.51
65864;SHT30;52639;51.180;20.460;2023-07-29T01:09:51;12.73;93.48
65864;SHT30;52639;51.180;20.460;2023-07-29T01:14:05;12.66;93.53
65864;SHT30;52639;51.180;20.460;2023-07-29T01:18:15;12.56;93.77
65864;SHT30;52639;51.180;20.460;2023-07-29T01:22:23;12.60;93.96
65864;SHT30;52639;51.180;20.460;2023-07-29T01:26:28;12.66;93.80
65864;SHT30;52639;51.180;20.460;2023-07-29T01:30:34;12.69;93.80
65864;SHT30;52639;51.180;20.460;2023-07-29T01:34:43;12.75;93.55
65864;SHT30;52639;51.180;20.460;2023-07-29T01:38:48;12.75;93.49
65864;SHT30;52639;51.180;20.460;2023-07-29T01:42:53;12.75;93.63
65864;SHT30;52639;51.180;20.460;2023-07-29T01:46:56;12.80;93.69
65864;SHT30;52639;51.180;20.460;2023-07-29T01:50:59;12.93;93.62
65864;SHT30;52639;51.180;20.460;2023-07-29T01:55:02;13.02;93.57
65864;SHT30;52639;51.180;20.460;2023-07-29T01:59:07;13.13;93.58
65864;SHT30;52639;51.180;20.460;2023-07-29T02:03:10;13.22;93.61
65864;SHT30;52639;51.180;20.460;2023-07-29T02:07:12;13.30;93.40
65864;SHT30;52639;51.180;20.460;2023-07-29T02:11:15;13.34;93.42
65864;SHT30;52639;51.180;20.460;2023-07-29T02:15:20;13.39;93.46
65864;SHT30;52639;51.180;20.460;2023-07-29T02:19:23;13.43;93.33
65864;SHT30;52639;51.180;20.460;2023-07-29T02:23:25;13.42;93.60
65864;SHT30;52639;51.180;20.460;2023-07-29T02:27:28;13.44;93.57
65864;SHT30;52639;51.180;20.460;2023-07-29T02:31:32;13.44;93.67
65864;SHT30;52639;51.180;20.460;2023-07-29T02:35:38;13.51;93.66
65864;SHT30;52639;51.180;20.460;2023-07-29T02:39:41;13.57;93.44
65864;SHT30;52639;51.180;20.460;2023-07-29T02:43:47;13.56;93.76
65864;SHT30;52639;51.180;20.460;2023-07-29T02:47:52;13.56;93.62
65864;SHT30;52639;51.180;20.460;2023-07-29T02:51:55;13.54;93.68
65864;SHT30;52639;51.180;20.460;2023-07-29T02:55:58;13.68;93.84
65864;SHT30;52639;51.180;20.460;2023-07-29T03:00:01;13.84;93.60
65864;SHT30;52639;51.180;20.460;2023-07-29T03:04:05;14.00;93.50
65864;SHT30;52639;51.180;20.460;2023-07-29T03:08:08;14.17;93.35
65864;SHT30;52639;51.180;20.460;2023-07-29T03:12:11;14.38;93.15
65864;SHT30;52639;51.180;20.460;2023-07-29T03:16:15;14.63;92.89
65864;SHT30;52639;51.180;20.460;2023-07-29T03:20:20;14.80;92.72
65864;SHT30;52639;51.180;20.460;2023-07-29T03:24:23;14.95;92.82
65864;SHT30;52639;51.180;20.460;2023-07-29T03:28:28;15.16;92.62
65864;SHT30;52639;51.180;20.460;2023-07-29T03:32:31;15.43;92.48
65864;SHT30;52639;51.180;20.460;2023-07-29T03:36:36;15.70;92.10
65864;SHT30;52639;51.180;20.460;2023-07-29T03:40:39;15.82;92.14
65864;SHT30;52639;51.180;20.460;2023-07-29T03:44:42;15.70;92.35
65864;SHT30;52639;51.180;20.460;2023-07-29T03:48:45;15.77;92.86
65864;SHT30;52639;51.180;20.460;2023-07-29T03:52:53;15.97;92.64
65864;SHT30;52639;51.180;20.460;2023-07-29T03:57:05;16.05;92.70
65864;SHT30;52639;51.180;20.460;2023-07-29T04:01:10;16.15;92.72
65864;SHT30;52639;51.180;20.460;2023-07-29T04:05:16;16.28;92.66
65864;SHT30;52639;51.180;20.460;2023-07-29T04:09:23;16.55;92.28
65864;SHT30;52639;51.180;20.460;2023-07-29T04:13:26;17.03;91.63
65864;SHT30;52639;51.180;20.460;2023-07-29T04:17:31;16.90;92.15
65864;SHT30;52639;51.180;20.460;2023-07-29T04:21:40;17.19;92.12
65864;SHT30;52639;51.180;20.460;2023-07-29T04:25:45;17.57;91.67
65864;SHT30;52639;51.180;20.460;2023-07-29T04:29:51;17.72;91.27
65864;SHT30;52639;51.180;20.460;2023-07-29T04:33:56;18.08;91.13
65864;SHT30;52639;51.180;20.460;2023-07-29T04:38:00;18.30;90.81
65864;SHT30;52639;51.180;20.460;2023-07-29T04:42:05;18.70;90.57
65864;SHT30;52639;51.180;20.460;2023-07-29T04:46:08;19.11;90.02
65864;SHT30;52639;51.180;20.460;2023-07-29T04:50:11;19.54;89.25
65864;SHT30;52639;51.180;20.460;2023-07-29T04:54:14;20.59;87.96
65864;SHT30;52639;51.180;20.460;2023-07-29T04:58:19;20.47;88.54
65864;SHT30;52639;51.180;20.460;2023-07-29T05:02:23;20.02;89.26
65864;SHT30;52639;51.180;20.460;2023-07-29T05:06:29;20.66;88.95
65864;SHT30;52639;51.180;20.460;2023-07-29T05:10:32;20.04;90.37
65864;SHT30;52639;51.180;20.460;2023-07-29T05:14:36;20.06;90.82
65864;SHT30;52639;51.180;20.460;2023-07-29T05:18:39;21.15;88.33
65864;SHT30;52639;51.180;20.460;2023-07-29T05:22:42;25.55;76.26
65864;SHT30;52639;51.180;20.460;2023-07-29T05:26:45;23.04;83.18
65864;SHT30;52639;51.180;20.460;2023-07-29T05:30:50;25.41;78.38
65864;SHT30;52639;51.180;20.460;2023-07-29T05:34:53;22.54;84.58
65864;SHT30;52639;51.180;20.460;2023-07-29T05:38:56;22.36;86.26
65864;SHT30;52639;51.180;20.460;2023-07-29T05:42:59;24.37;79.66
65864;SHT30;52639;51.180;20.460;2023-07-29T05:47:03;23.21;83.51
65864;SHT30;52639;51.180;20.460;2023-07-29T05:51:10;30.46;65.11
65864;SHT30;52639;51.180;20.460;2023-07-29T05:55:13;30.47;65.63
65864;SHT30;52639;51.180;20.460;2023-07-29T05:59:16;28.32;72.51
65864;SHT30;52639;51.180;20.460;2023-07-29T06:03:20;33.08;60.46
65864;SHT30;52639;51.180;20.460;2023-07-29T06:07:23;28.65;72.10
65864;SHT30;52639;51.180;20.460;2023-07-29T06:11:28;25.03;80.99
65864;SHT30;52639;51.180;20.460;2023-07-29T06:15:32;32.09;61.32
65864;SHT30;52639;51.180;20.460;2023-07-29T06:19:36;30.80;64.10
65864;SHT30;52639;51.180;20.460;2023-07-29T06:23:39;33.50;57.78
65864;SHT30;52639;51.180;20.460;2023-07-29T06:27:42;34.96;55.31
65864;SHT30;52639;51.180;20.460;2023-07-29T06:31:45;35.03;55.80
65864;SHT30;52639;51.180;20.460;2023-07-29T06:35:50;35.10;55.32
65864;SHT30;52639;51.180;20.460;2023-07-29T06:39:53;32.53;62.14
65864;SHT30;52639;51.180;20.460;2023-07-29T06:43:55;31.85;62.22
65864;SHT30;52639;51.180;20.460;2023-07-29T06:47:59;27.82;71.27
65864;SHT30;52639;51.180;20.460;2023-07-29T06:52:06;26.46;71.24
65864;SHT30;52639;51.180;20.460;2023-07-29T06:56:09;25.64;75.29
65864;SHT30;52639;51.180;20.460;2023-07-29T07:00:19;27.92;69.04
65864;SHT30;52639;51.180;20.460;2023-07-29T07:04:22;25.45;76.59
65864;SHT30;52639;51.180;20.460;2023-07-29T07:08:26;23.39;80.99
65864;SHT30;52639;51.180;20.460;2023-07-29T07:12:42;24.53;78.52
65864;SHT30;52639;51.180;20.460;2023-07-29T07:16:56;23.38;80.39
65864;SHT30;52639;51.180;20.460;2023-07-29T07:21:24;23.83;78.94
65864;SHT30;52639;51.180;20.460;2023-07-29T07:25:41;25.84;73.53
65864;SHT30;52639;51.180;20.460;2023-07-29T07:29:44;23.52;79.51
65864;SHT30;52639;51.180;20.460;2023-07-29T07:33:48;23.12;80.68
65864;SHT30;52639;51.180;20.460;2023-07-29T07:37:51;25.74;73.93
65864;SHT30;52639;51.180;20.460;2023-07-29T07:41:59;25.35;74.64
65864;SHT30;52639;51.180;20.460;2023-07-29T07:46:04;23.39;79.92
65864;SHT30;52639;51.180;20.460;2023-07-29T07:50:08;26.26;72.46
65864;SHT30;52639;51.180;20.460;2023-07-29T07:54:11;27.54;69.62
65864;SHT30;52639;51.180;20.460;2023-07-29T07:58:16;24.53;77.60
65864;SHT30;52639;51.180;20.460;2023-07-29T08:02:19;24.60;78.10
65864;SHT30;52639;51.180;20.460;2023-07-29T08:06:29;24.30;77.36
65864;SHT30;52639;51.180;20.460;2023-07-29T08:10:34;23.69;78.02
65864;SHT30;52639;51.180;20.460;2023-07-29T08:14:40;23.96;76.56
65864;SHT30;52639;51.180;20.460;2023-07-29T08:18:46;25.89;72.04
65864;SHT30;52639;51.180;20.460;2023-07-29T08:22:49;26.65;70.92
65864;SHT30;52639;51.180;20.460;2023-07-29T08:26:51;25.90;74.25
65864;SHT30;52639;51.180;20.460;2023-07-29T08:30:56;25.48;74.78
65864;SHT30;52639;51.180;20.460;2023-07-29T08:34:59;25.15;75.46
65864;SHT30;52639;51.180;20.460;2023-07-29T08:39:03;26.60;72.47
65864;SHT30;52639;51.180;20.460;2023-07-29T08:43:06;26.16;73.66
65864;SHT30;52639;51.180;20.460;2023-07-29T08:47:11;27.34;70.58
65864;SHT30;52639;51.180;20.460;2023-07-29T08:51:17;28.44;67.27
65864;SHT30;52639;51.180;20.460;2023-07-29T08:55:20;29.29;65.82
65864;SHT30;52639;51.180;20.460;2023-07-29T08:59:23;29.04;66.48
65864;SHT30;52639;51.180;20.460;2023-07-29T09:03:29;30.13;63.55
65864;SHT30;52639;51.180;20.460;2023-07-29T09:07:34;28.43;67.01
65864;SHT30;52639;51.180;20.460;2023-07-29T09:11:37;30.86;60.58
65864;SHT30;52639;51.180;20.460;2023-07-29T09:15:40;31.83;58.06
65864;SHT30;52639;51.180;20.460;2023-07-29T09:19:47;31.46;58.16
65864;SHT30;52639;51.180;20.460;2023-07-29T09:23:51;29.70;61.58
65864;SHT30;52639;51.180;20.460;2023-07-29T09:27:58;30.06;60.21
65864;SHT30;52639;51.180;20.460;2023-07-29T09:32:18;30.12;60.28
65864;SHT30;52639;51.180;20.460;2023-07-29T09:36:23;29.28;61.66
65864;SHT30;52639;51.180;20.460;2023-07-29T09:40:26;28.81;62.79
65864;SHT30;52639;51.180;20.460;2023-07-29T09:44:35;28.84;63.22
65864;SHT30;52639;51.180;20.460;2023-07-29T09:48:38;29.15;62.25
65864;SHT30;52639;51.180;20.460;2023-07-29T09:52:46;28.74;60.97
65864;SHT30;52639;51.180;20.460;2023-07-29T09:56:50;28.59;60.54
65864;SHT30;52639;51.180;20.460;2023-07-29T10:00:53;28.97;58.98
65864;SHT30;52639;51.180;20.460;2023-07-29T10:04:58;28.05;60.24
65864;SHT30;52639;51.180;20.460;2023-07-29T10:09:05;28.57;58.50
65864;SHT30;52639;51.180;20.460;2023-07-29T10:13:09;28.59;57.56
65864;SHT30;52639;51.180;20.460;2023-07-29T10:17:13;28.40;57.86
65864;SHT30;52639;51.180;20.460;2023-07-29T10:21:18;28.21;58.46
65864;SHT30;52639;51.180;20.460;2023-07-29T10:25:23;27.59;59.90
65864;SHT30;52639;51.180;20.460;2023-07-29T10:29:30;28.53;58.34
65864;SHT30;52639;51.180;20.460;2023-07-29T10:33:34;28.43;58.62
65864;SHT30;52639;51.180;20.460;2023-07-29T10:37:38;28.30;58.67
65864;SHT30;52639;51.180;20.460;2023-07-29T10:41:57;27.56;59.60
65864;SHT30;52639;51.180;20.460;2023-07-29T10:46:15;27.62;58.91
65864;SHT30;52639;51.180;20.460;2023-07-29T10:50:20;27.04;59.88
65864;SHT30;52639;51.180;20.460;2023-07-29T10:54:29;27.23;59.37
65864;SHT30;52639;51.180;20.460;2023-07-29T10:58:35;27.42;58.60
65864;SHT30;52639;51.180;20.460;2023-07-29T11:02:38;26.80;60.69
65864;SHT30;52639;51.180;20.460;2023-07-29T11:11:27;27.18;60.24
65864;SHT30;52639;51.180;20.460;2023-07-29T11:15:31;26.81;60.30
65864;SHT30;52639;51.180;20.460;2023-07-29T11:19:35;26.83;60.01
65864;SHT30;52639;51.180;20.460;2023-07-29T11:23:40;27.44;58.45
65864;SHT30;52639;51.180;20.460;2023-07-29T11:27:54;26.83;60.14
65864;SHT30;52639;51.180;20.460;2023-07-29T11:31:59;26.51;60.76
65864;SHT30;52639;51.180;20.460;2023-07-29T11:36:03;26.06;62.26
65864;SHT30;52639;51.180;20.460;2023-07-29T11:40:07;26.15;62.35
65864;SHT30;52639;51.180;20.460;2023-07-29T11:44:16;26.09;62.01
65864;SHT30;52639;51.180;20.460;2023-07-29T11:48:28;26.27;61.48
65864;SHT30;52639;51.180;20.460;2023-07-29T11:52:31;26.06;62.31
65864;SHT30;52639;51.180;20.460;2023-07-29T11:56:35;25.82;62.33
65864;SHT30;52639;51.180;20.460;2023-07-29T12:00:38;25.81;62.17
65864;SHT30;52639;51.180;20.460;2023-07-29T12:04:43;26.13;61.06
65864;SHT30;52639;51.180;20.460;2023-07-29T12:08:47;26.02;62.01
65864;SHT30;52639;51.180;20.460;2023-07-29T12:12:51;26.07;62.25
65864;SHT30;52639;51.180;20.460;2023-07-29T12:16:54;26.80;59.66
65864;SHT30;52639;51.180;20.460;2023-07-29T12:20:59;26.49;59.90
65864;SHT30;52639;51.180;20.460;2023-07-29T12:25:04;26.20;60.94
65864;SHT30;52639;51.180;20.460;2023-07-29T12:29:15;26.33;60.76
65864;SHT30;52639;51.180;20.460;2023-07-29T12:33:30;26.79;59.28
65864;SHT30;52639;51.180;20.460;2023-07-29T12:37:35;26.90;58.66
65864;SHT30;52639;51.180;20.460;2023-07-29T12:41:40;27.12;57.69
65864;SHT30;52639;51.180;20.460;2023-07-29T12:45:45;27.66;56.47
65864;SHT30;52639;51.180;20.460;2023-07-29T12:49:50;27.21;57.78
65864;SHT30;52639;51.180;20.460;2023-07-29T12:54:04;26.40;60.07
65864;SHT30;52639;51.180;20.460;2023-07-29T12:58:17;26.05;61.46
65864;SHT30;52639;51.180;20.460;2023-07-29T13:02:24;26.57;60.38
65864;SHT30;52639;51.180;20.460;2023-07-29T13:06:30;27.11;59.34
65864;SHT30;52639;51.180;20.460;2023-07-29T13:10:38;27.37;58.70
65864;SHT30;52639;51.180;20.460;2023-07-29T13:14:41;26.77;59.53
65864;SHT30;52639;51.180;20.460;2023-07-29T13:18:44;26.40;60.42
65864;SHT30;52639;51.180;20.460;2023-07-29T13:22:48;27.04;58.24
65864;SHT30;52639;51.180;20.460;2023-07-29T13:26:52;27.42;57.82
65864;SHT30;52639;51.180;20.460;2023-07-29T13:30:55;27.65;57.81
65864;SHT30;52639;51.180;20.460;2023-07-29T13:35:00;28.39;56.01
65864;SHT30;52639;51.180;20.460;2023-07-29T13:39:08;28.46;55.58
65864;SHT30;52639;51.180;20.460;2023-07-29T13:43:15;28.78;54.79
65864;SHT30;52639;51.180;20.460;2023-07-29T13:47:18;28.90;54.14
65864;SHT30;52639;51.180;20.460;2023-07-29T13:51:21;28.50;55.99
65864;SHT30;52639;51.180;20.460;2023-07-29T13:55:25;28.10;57.00
65864;SHT30;52639;51.180;20.460;2023-07-29T13:59:29;27.86;57.87
65864;SHT30;52639;51.180;20.460;2023-07-29T14:03:32;27.24;59.39
65864;SHT30;52639;51.180;20.460;2023-07-29T14:07:35;27.69;57.31
65864;SHT30;52639;51.180;20.460;2023-07-29T14:11:38;28.10;55.35
65864;SHT30;52639;51.180;20.460;2023-07-29T14:15:42;27.54;57.40
65864;SHT30;52639;51.180;20.460;2023-07-29T14:19:45;27.28;58.97
65864;SHT30;52639;51.180;20.460;2023-07-29T14:23:48;26.93;60.23
65864;SHT30;52639;51.180;20.460;2023-07-29T14:27:51;27.07;59.88
65864;SHT30;52639;51.180;20.460;2023-07-29T14:31:55;27.28;58.97
65864;SHT30;52639;51.180;20.460;2023-07-29T14:35:58;27.45;58.08
65864;SHT30;52639;51.180;20.460;2023-07-29T14:40:01;26.76;60.10
65864;SHT30;52639;51.180;20.460;2023-07-29T14:44:05;26.10;61.41
65864;SHT30;52639;51.180;20.460;2023-07-29T14:48:09;25.95;61.57
65864;SHT30;52639;51.180;20.460;2023-07-29T14:52:12;25.74;62.31
65864;SHT30;52639;51.180;20.460;2023-07-29T14:56:15;25.61;62.51
65864;SHT30;52639;51.180;20.460;2023-07-29T15:00:19;25.85;62.20
65864;SHT30;52639;51.180;20.460;2023-07-29T15:04:24;25.90;62.03
65864;SHT30;52639;51.180;20.460;2023-07-29T15:08:28;26.05;61.56
65864;SHT30;52639;51.180;20.460;2023-07-29T15:12:31;26.12;60.74
65864;SHT30;52639;51.180;20.460;2023-07-29T15:16:34;26.12;60.44
65864;SHT30;52639;51.180;20.460;2023-07-29T15:20:40;26.23;60.19
65864;SHT30;52639;51.180;20.460;2023-07-29T15:24:44;26.15;60.43
65864;SHT30;52639;51.180;20.460;2023-07-29T15:28:47;26.09;60.53
65864;SHT30;52639;51.180;20.460;2023-07-29T15:32:51;26.16;60.40
65864;SHT30;52639;51.180;20.460;2023-07-29T15:36:55;26.25;60.19
65864;SHT30;52639;51.180;20.460;2023-07-29T15:40:59;26.17;60.33
65864;SHT30;52639;51.180;20.460;2023-07-29T15:45:02;25.92;61.04
65864;SHT30;52639;51.180;20.460;2023-07-29T15:49:05;25.72;61.51
65864;SHT30;52639;51.180;20.460;2023-07-29T15:53:09;25.64;61.48
65864;SHT30;52639;51.180;20.460;2023-07-29T15:57:12;25.81;61.05
65864;SHT30;52639;51.180;20.460;2023-07-29T16:01:15;25.65;61.14
65864;SHT30;52639;51.180;20.460;2023-07-29T16:05:18;25.52;61.49
65864;SHT30;52639;51.180;20.460;2023-07-29T16:09:22;25.51;61.72
65864;SHT30;52639;51.180;20.460;2023-07-29T16:13:25;25.62;61.49
65864;SHT30;52639;51.180;20.460;2023-07-29T16:17:28;25.65;61.62
65864;SHT30;52639;51.180;20.460;2023-07-29T16:21:31;25.59;61.90
65864;SHT30;52639;51.180;20.460;2023-07-29T16:25:36;25.39;62.25
65864;SHT30;52639;51.180;20.460;2023-07-29T16:29:39;25.18;62.82
65864;SHT30;52639;51.180;20.460;2023-07-29T16:33:42;24.88;63.65
65864;SHT30;52639;51.180;20.460;2023-07-29T16:37:45;24.59;64.32
65864;SHT30;52639;51.180;20.460;2023-07-29T16:41:49;24.33;64.50
65864;SHT30;52639;51.180;20.460;2023-07-29T16:45:52;24.05;65.01
65864;SHT30;52639;51.180;20.460;2023-07-29T16:49:55;23.85;65.35
65864;SHT30;52639;51.180;20.460;2023-07-29T16:54:00;23.76;65.35
65864;SHT30;52639;51.180;20.460;2023-07-29T16:58:05;23.72;65.61
65864;SHT30;52639;51.180;20.460;2023-07-29T17:02:08;23.71;65.55
65864;SHT30;52639;51.180;20.460;2023-07-29T17:06:12;23.62;65.77
65864;SHT30;52639;51.180;20.460;2023-07-29T17:10:15;23.51;66.07
65864;SHT30;52639;51.180;20.460;2023-07-29T17:14:19;23.28;66.67
65864;SHT30;52639;51.180;20.460;2023-07-29T17:18:23;23.04;67.28
65864;SHT30;52639;51.180;20.460;2023-07-29T17:22:26;22.94;67.53
65864;SHT30;52639;51.180;20.460;2023-07-29T17:26:29;22.80;67.88
65864;SHT30;52639;51.180;20.460;2023-07-29T17:30:34;22.77;67.91
65864;SHT30;52639;51.180;20.460;2023-07-29T17:34:38;22.64;68.14
65864;SHT30;52639;51.180;20.460;2023-07-29T17:38:40;22.56;68.42
65864;SHT30;52639;51.180;20.460;2023-07-29T17:42:44;22.53;68.40
65864;SHT30;52639;51.180;20.460;2023-07-29T17:46:49;22.40;68.78
65864;SHT30;52639;51.180;20.460;2023-07-29T17:50:52;22.44;68.42
65864;SHT30;52639;51.180;20.460;2023-07-29T17:54:55;22.28;69.13
65864;SHT30;52639;51.180;20.460;2023-07-29T17:58:58;22.22;68.97
65864;SHT30;52639;51.180;20.460;2023-07-29T18:03:04;22.08;69.48
65864;SHT30;52639;51.180;20.460;2023-07-29T18:07:08;21.96;69.86
65864;SHT30;52639;51.180;20.460;2023-07-29T18:11:11;21.85;70.03
65864;SHT30;52639;51.180;20.460;2023-07-29T18:15:15;21.83;70.08
65864;SHT30;52639;51.180;20.460;2023-07-29T18:19:20;21.72;70.52
65864;SHT30;52639;51.180;20.460;2023-07-29T18:23:24;21.54;70.74
65864;SHT30;52639;51.180;20.460;2023-07-29T18:27:27;21.41;70.90
65864;SHT30;52639;51.180;20.460;2023-07-29T18:31:30;21.25;71.26
65864;SHT30;52639;51.180;20.460;2023-07-29T18:35:40;21.20;71.41
65864;SHT30;52639;51.180;20.460;2023-07-29T18:39:44;21.20;71.00
65864;SHT30;52639;51.180;20.460;2023-07-29T18:43:46;20.98;71.50
65864;SHT30;52639;51.180;20.460;2023-07-29T18:47:50;20.94;71.21
65864;SHT30;52639;51.180;20.460;2023-07-29T18:51:55;20.80;71.40
65864;SHT30;52639;51.180;20.460;2023-07-29T18:55:59;20.57;71.78
65864;SHT30;52639;51.180;20.460;2023-07-29T19:00:05;20.43;71.94
65864;SHT30;52639;51.180;20.460;2023-07-29T19:04:09;20.36;71.95
65864;SHT30;52639;51.180;20.460;2023-07-29T19:08:14;20.25;72.17
65864;SHT30;52639;51.180;20.460;2023-07-29T19:12:17;20.13;72.23
65864;SHT30;52639;51.180;20.460;2023-07-29T19:16:21;20.13;72.15
65864;SHT30;52639;51.180;20.460;2023-07-29T19:20:25;20.10;72.09
65864;SHT30;52639;51.180;20.460;2023-07-29T19:24:30;20.08;72.11
65864;SHT30;52639;51.180;20.460;2023-07-29T19:28:34;20.06;71.93
65864;SHT30;52639;51.180;20.460;2023-07-29T19:32:37;20.00;72.13
65864;SHT30;52639;51.180;20.460;2023-07-29T19:36:40;19.95;72.18
65864;SHT30;52639;51.180;20.460;2023-07-29T19:40:47;19.99;72.10
65864;SHT30;52639;51.180;20.460;2023-07-29T19:44:51;19.92;72.20
65864;SHT30;52639;51.180;20.460;2023-07-29T19:48:55;19.95;72.16
65864;SHT30;52639;51.180;20.460;2023-07-29T19:52:58;19.99;72.03
65864;SHT30;52639;51.180;20.460;2023-07-29T19:57:04;19.95;72.23
65864;SHT30;52639;51.180;20.460;2023-07-29T20:01:09;19.93;72.28
65864;SHT30;52639;51.180;20.460;2023-07-29T20:05:13;19.92;72.37
65864;SHT30;52639;51.180;20.460;2023-07-29T20:09:17;19.90;72.75
65864;SHT30;52639;51.180;20.460;2023-07-29T20:13:26;19.86;72.97
65864;SHT30;52639;51.180;20.460;2023-07-29T20:17:30;19.74;73.34
65864;SHT30;52639;51.180;20.460;2023-07-29T20:21:34;19.74;73.49
65864;SHT30;52639;51.180;20.460;2023-07-29T20:25:37;19.69;73.73
65864;SHT30;52639;51.180;20.460;2023-07-29T20:29:43;19.68;74.03
65864;SHT30;52639;51.180;20.460;2023-07-29T20:33:48;19.71;73.92
65864;SHT30;52639;51.180;20.460;2023-07-29T20:37:51;19.71;74.09
65864;SHT30;52639;51.180;20.460;2023-07-29T20:41:55;19.69;74.37
65864;SHT30;52639;51.180;20.460;2023-07-29T20:46:00;19.66;74.61
65864;SHT30;52639;51.180;20.460;2023-07-29T20:50:06;19.62;74.84
65864;SHT30;52639;51.180;20.460;2023-07-29T20:54:10;19.55;75.07
65864;SHT30;52639;51.180;20.460;2023-07-29T20:58:14;19.41;75.59
65864;SHT30;52639;51.180;20.460;2023-07-29T21:02:19;19.21;76.06
65864;SHT30;52639;51.180;20.460;2023-07-29T21:06:22;19.17;76.17
65864;SHT30;52639;51.180;20.460;2023-07-29T21:10:25;19.11;76.37
65864;SHT30;52639;51.180;20.460;2023-07-29T21:14:28;19.10;76.40
65864;SHT30;52639;51.180;20.460;2023-07-29T21:18:32;19.07;76.65
65864;SHT30;52639;51.180;20.460;2023-07-29T21:22:35;19.10;76.79
65864;SHT30;52639;51.180;20.460;2023-07-29T21:26:38;19.06;77.20
65864;SHT30;52639;51.180;20.460;2023-07-29T21:30:41;19.00;77.23
65864;SHT30;52639;51.180;20.460;2023-07-29T21:34:46;18.97;77.66
65864;SHT30;52639;51.180;20.460;2023-07-29T21:38:49;18.91;77.88
65864;SHT30;52639;51.180;20.460;2023-07-29T21:42:52;18.86;77.98
65864;SHT30;52639;51.180;20.460;2023-07-29T21:46:55;18.83;78.03
65864;SHT30;52639;51.180;20.460;2023-07-29T21:50:59;18.67;78.51
65864;SHT30;52639;51.180;20.460;2023-07-29T21:55:02;18.48;78.96
65864;SHT30;52639;51.180;20.460;2023-07-29T21:59:05;18.24;79.41
65864;SHT30;52639;51.180;20.460;2023-07-29T22:03:08;18.10;79.72
65864;SHT30;52639;51.180;20.460;2023-07-29T22:07:13;18.08;79.86
65864;SHT30;52639;51.180;20.460;2023-07-29T22:11:17;17.85;80.32
65864;SHT30;52639;51.180;20.460;2023-07-29T22:15:19;17.65;80.76
65864;SHT30;52639;51.180;20.460;2023-07-29T22:19:22;17.35;81.27
65864;SHT30;52639;51.180;20.460;2023-07-29T22:23:27;17.14;81.70
65864;SHT30;52639;51.180;20.460;2023-07-29T22:27:30;16.97;81.86
65864;SHT30;52639;51.180;20.460;2023-07-29T22:31:33;16.80;82.17
65864;SHT30;52639;51.180;20.460;2023-07-29T22:35:36;16.63;82.56
65864;SHT30;52639;51.180;20.460;2023-07-29T22:39:40;16.52;82.73
65864;SHT30;52639;51.180;20.460;2023-07-29T22:43:44;16.33;83.01
65864;SHT30;52639;51.180;20.460;2023-07-29T22:47:47;16.25;83.27
65864;SHT30;52639;51.180;20.460;2023-07-29T22:51:51;16.23;83.20
65864;SHT30;52639;51.180;20.460;2023-07-29T22:55:56;16.18;83.22
65864;SHT30;52639;51.180;20.460;2023-07-29T22:59:58;16.06;83.50
65864;SHT30;52639;51.180;20.460;2023-07-29T23:04:01;16.00;83.76
65864;SHT30;52639;51.180;20.460;2023-07-29T23:08:04;15.98;83.85
65864;SHT30;52639;51.180;20.460;2023-07-29T23:12:09;15.95;84.02
65864;SHT30;52639;51.180;20.460;2023-07-29T23:16:12;15.90;84.16
65864;SHT30;52639;51.180;20.460;2023-07-29T23:20:15;15.85;84.37
65864;SHT30;52639;51.180;20.460;2023-07-29T23:24:17;15.84;84.47
65864;SHT30;52639;51.180;20.460;2023-07-29T23:28:22;15.81;84.54
65864;SHT30;52639;51.180;20.460;2023-07-29T23:32:25;15.81;84.57
65864;SHT30;52639;51.180;20.460;2023-07-29T23:36:28;15.91;84.52
65864;SHT30;52639;51.180;20.460;2023-07-29T23:40:31;15.88;84.68
65864;SHT30;52639;51.180;20.460;2023-07-29T23:44:35;15.97;84.73
65864;SHT30;52639;51.180;20.460;2023-07-29T23:48:38;16.08;84.85
65864;SHT30;52639;51.180;20.460;2023-07-29T23:52:40;16.09;84.80
65864;SHT30;52639;51.180;20.460;2023-07-29T23:56:43;16.04;84.89
